TimeCDT,TemperatureF,Dew PointF,Humidity,Sea Level PressureIn,VisibilityMPH,Wind Direction,Wind SpeedMPH,Gust SpeedMPH,PrecipitationIn,Events,Conditions,WindDirDegrees,DateUTC
12:12 AM,35.6,35.6,100,29.97,3.0,Calm,Calm,-,N/A,,Clear,0,2013-03-15 05:12:00
12:33 AM,35.6,33.8,93,29.98,3.0,Calm,Calm,-,N/A,,Clear,0,2013-03-15 05:33:00
12:52 AM,33.8,33.8,100,29.98,2.5,Calm,Calm,-,N/A,,Clear,0,2013-03-15 05:52:00
1:12 AM,33.8,33.8,100,29.98,2.5,Calm,Calm,-,N/A,,Clear,0,2013-03-15 06:12:00
1:32 AM,35.6,33.8,93,29.97,3.0,Calm,Calm,-,N/A,,Clear,0,2013-03-15 06:32:00
1:52 AM,33.8,33.8,100,29.96,4.0,Calm,Calm,-,N/A,,Clear,0,2013-03-15 06:52:00
2:12 AM,35.6,33.8,93,29.96,4.0,Calm,Calm,-,N/A,,Clear,0,2013-03-15 07:12:00
2:32 AM,35.6,33.8,93,29.97,5.0,West,4.6,-,N/A,,Clear,280,2013-03-15 07:32:00
2:53 AM,35.6,33.8,93,29.96,7.0,Calm,Calm,-,N/A,,Scattered Clouds,0,2013-03-15 07:53:00
3:12 AM,35.6,33.8,93,29.96,10.0,NW,3.5,-,N/A,,Overcast,310,2013-03-15 08:12:00
3:32 AM,35.6,32.0,87,29.97,10.0,NW,6.9,-,N/A,,Overcast,320,2013-03-15 08:32:00
3:53 AM,35.6,32.0,87,29.98,10.0,NNW,9.2,-,N/A,,Overcast,330,2013-03-15 08:53:00
4:12 AM,33.8,32.0,93,29.97,10.0,NNW,9.2,-,N/A,,Overcast,340,2013-03-15 09:12:00
4:32 AM,33.8,32.0,93,29.95,7.0,North,11.5,-,N/A,,Overcast,350,2013-03-15 09:32:00
4:53 AM,33.8,30.2,87,29.97,5.0,WNW,5.8,-,N/A,,Overcast,290,2013-03-15 09:53:00
5:12 AM,33.8,30.2,87,29.96,7.0,Calm,Calm,-,N/A,,Overcast,0,2013-03-15 10:12:00
5:32 AM,33.8,32.0,93,29.93,5.0,Calm,Calm,-,N/A,,Overcast,0,2013-03-15 10:32:00
5:53 AM,33.8,32.0,93,29.91,5.0,Calm,Calm,-,N/A,,Overcast,0,2013-03-15 10:53:00
6:12 AM,33.8,30.2,87,29.90,7.0,NNE,3.5,-,N/A,,Overcast,30,2013-03-15 11:12:00
6:32 AM,32.0,30.2,93,29.88,5.0,NE,3.5,-,N/A,,Overcast,50,2013-03-15 11:32:00
6:52 AM,32.0,30.2,93,29.88,5.0,Calm,Calm,-,N/A,,Mostly Cloudy,0,2013-03-15 11:52:00
7:13 AM,32.0,30.2,93,29.87,5.0,NE,5.8,-,N/A,,Overcast,50,2013-03-15 12:13:00
7:32 AM,32.0,30.2,93,29.87,5.0,NNE,4.6,-,N/A,,Overcast,30,2013-03-15 12:32:00
7:52 AM,32.0,30.2,93,29.87,5.0,Calm,Calm,-,N/A,,Scattered Clouds,0,2013-03-15 12:52:00
8:13 AM,32.0,30.2,93,29.87,4.0,NNE,5.8,-,N/A,,Scattered Clouds,30,2013-03-15 13:13:00
8:32 AM,30.2,30.2,100,29.87,3.0,NE,5.8,-,N/A,,Mostly Cloudy,40,2013-03-15 13:32:00
8:52 AM,30.2,30.2,100,29.87,3.0,NE,4.6,-,N/A,,Mostly Cloudy,40,2013-03-15 13:52:00
9:13 AM,30.2,30.2,100,29.88,3.0,NNE,4.6,-,N/A,,Scattered Clouds,20,2013-03-15 14:13:00
9:32 AM,30.2,30.2,100,29.86,3.0,Calm,Calm,-,N/A,,Scattered Clouds,0,2013-03-15 14:32:00
9:52 AM,32.0,30.2,93,29.87,3.0,NNE,5.8,-,N/A,,Scattered Clouds,20,2013-03-15 14:52:00
10:13 AM,32.0,30.2,93,29.87,3.0,North,8.1,-,N/A,,Mostly Cloudy,10,2013-03-15 15:13:00
10:32 AM,32.0,30.2,93,29.87,3.0,North,5.8,-,N/A,,Overcast,10,2013-03-15 15:32:00
10:52 AM,32.0,30.2,93,29.87,2.5,NNE,5.8,-,N/A,,Overcast,20,2013-03-15 15:52:00
11:12 AM,32.0,30.2,93,29.87,2.5,NNE,6.9,-,N/A,,Overcast,20,2013-03-15 16:12:00
11:32 AM,32.0,30.2,93,29.87,2.0,North,10.4,-,N/A,,Overcast,10,2013-03-15 16:32:00
11:53 AM,32.0,30.2,93,29.87,2.0,North,10.4,-,N/A,,Overcast,10,2013-03-15 16:53:00
12:12 PM,33.8,32.0,93,29.86,2.5,NNE,9.2,-,N/A,,Overcast,30,2013-03-15 17:12:00
12:32 PM,33.8,32.0,93,29.86,3.0,North,9.2,-,N/A,,Overcast,10,2013-03-15 17:32:00
12:53 PM,33.8,32.0,93,29.86,3.0,North,9.2,-,N/A,,Overcast,10,2013-03-15 17:53:00
1:12 PM,35.6,32.0,87,29.85,3.0,NNE,8.1,-,N/A,,Overcast,30,2013-03-15 18:12:00
1:32 PM,33.8,32.0,93,29.85,3.0,NNE,9.2,-,N/A,,Overcast,30,2013-03-15 18:32:00
1:53 PM,33.8,32.0,93,29.84,2.5,NNE,10.4,-,N/A,,Overcast,20,2013-03-15 18:53:00
2:12 PM,35.6,33.8,93,29.83,3.0,NE,8.1,-,N/A,,Overcast,40,2013-03-15 19:12:00
2:32 PM,35.6,33.8,93,29.81,2.5,NE,9.2,-,N/A,,Overcast,40,2013-03-15 19:32:00
2:53 PM,35.6,33.8,93,29.81,3.0,NE,6.9,-,N/A,,Overcast,50,2013-03-15 19:53:00
3:12 PM,35.6,33.8,93,29.81,3.0,NE,5.8,-,N/A,,Overcast,50,2013-03-15 20:12:00
3:32 PM,35.6,33.8,93,29.83,2.5,NNE,5.8,-,N/A,,Overcast,20,2013-03-15 20:32:00
3:53 PM,35.6,33.8,93,29.82,2.5,NE,4.6,-,N/A,,Overcast,40,2013-03-15 20:53:00
4:12 PM,35.6,33.8,93,29.81,2.0,NNE,3.5,-,N/A,,Overcast,30,2013-03-15 21:12:00
4:32 PM,35.6,33.8,93,29.79,2.0,NE,3.5,-,N/A,,Overcast,50,2013-03-15 21:32:00
4:52 PM,35.6,33.8,93,29.79,2.0,ENE,4.6,-,N/A,,Overcast,60,2013-03-15 21:52:00
5:12 PM,35.6,33.8,93,29.78,2.0,ENE,5.8,-,N/A,,Overcast,70,2013-03-15 22:12:00
5:33 PM,33.8,33.8,100,29.77,1.8,East,5.8,-,N/A,,Overcast,80,2013-03-15 22:33:00
5:52 PM,33.8,33.8,100,29.78,1.5,NE,3.5,-,N/A,,Overcast,50,2013-03-15 22:52:00
6:12 PM,33.8,33.8,100,29.78,1.2,Calm,Calm,-,N/A,,Overcast,0,2013-03-15 23:12:00
6:33 PM,33.8,32.0,93,29.77,1.5,East,4.6,-,N/A,,Overcast,80,2013-03-15 23:33:00
6:53 PM,33.8,32.0,93,29.75,1.8,East,3.5,-,N/A,,Overcast,100,2013-03-15 23:53:00
7:12 PM,33.8,33.8,100,29.80,2.0,NNW,3.5,-,N/A,,Overcast,330,2013-03-16 00:12:00
7:33 PM,33.8,33.8,100,29.83,2.0,NW,5.8,-,N/A,,Overcast,310,2013-03-16 00:33:00
7:53 PM,33.8,33.8,100,29.83,1.5,NNW,5.8,-,N/A,,Overcast,330,2013-03-16 00:53:00
8:12 PM,33.8,33.8,100,29.81,1.0,Calm,Calm,-,N/A,,Overcast,0,2013-03-16 01:12:00
8:33 PM,33.8,33.8,100,29.81,0.8,Calm,Calm,-,N/A,,Overcast,0,2013-03-16 01:33:00
8:53 PM,33.8,33.8,100,29.84,0.5,NW,9.2,-,N/A,Fog,Fog,320,2013-03-16 01:53:00
9:12 PM,33.8,32.0,93,29.84,0.2,NW,8.1,-,N/A,Fog,Fog,320,2013-03-16 02:12:00
9:53 PM,32.0,32.0,100,29.86,0.2,NW,9.2,-,N/A,Fog,Fog,320,2013-03-16 02:53:00
10:12 PM,32.0,32.0,100,29.85,0.5,NNW,9.2,-,N/A,Fog,Fog,340,2013-03-16 03:12:00
10:33 PM,32.0,32.0,100,29.85,0.8,NNW,4.6,-,N/A,,Overcast,330,2013-03-16 03:33:00
10:53 PM,32.0,32.0,100,29.86,1.0,NNW,8.1,-,N/A,,Overcast,340,2013-03-16 03:53:00
11:12 PM,32.0,32.0,100,29.86,1.2,NNW,10.4,-,N/A,,Overcast,330,2013-03-16 04:12:00
11:33 PM,32.0,32.0,100,29.86,1.5,NNW,8.1,-,N/A,,Overcast,340,2013-03-16 04:33:00
11:53 PM,32.0,32.0,100,29.86,1.5,NNW,11.5,-,N/A,,Overcast,340,2013-03-16 04:53:00